Aérodrome :
LOGIN :

S'inscrire | Disclaimer

   EN    FR    IT 

 










Légende :    VFR   VFR Marginal   IFR   IFR Intensif   IFR Très Intensif
Visi : 
Plafond : 
>= 8 km
>= 3000ft
5 à 8 km
1000 à 3000 ft
1500m à 5 km
500 à 1000 ft
800 à 1500m
200 à 500 ft
< 800m
< 200 ft
Symboles :   Orages  Brouillard  Fortes neiges  Fortes précipitations  Vent > 20 kt
SIGMETs :   Divers  Orages  Givrage  Turbulence  Onde Orograph.  Cendres Volcan.






- Altitude de l'aérodrome : -11 ft
- Code IATA : AMS


EHAM - Amsterdam Schiphol

DERNIER METAR :
  • 280925Z 19011KT 9999 FEW025 05/02 Q1014 NOSIG

METARs EXPIRÉS :
  • 280855Z 20008KT 9999 FEW023 04/02 Q1014 NOSIG
  • 280825Z 19008KT 9999 FEW023 04/02 Q1014 NOSIG
  • 280755Z 18007KT 9999 FEW023 04/02 Q1014 NOSIG
  • 280725Z 21008KT 9999 FEW023 03/01 Q1014 NOSIG
  • 280655Z 23008KT 9999 FEW020 03/01 Q1014 NOSIG

TAF COR TAF EHAM
Valide du 28 à 06h jusqu'au 29 à 12h UTC


280514Z 2806/2912 23007KT 9999 SCT025
BECMG 2812/2815 18013KT
BECMG 2815/2818 17018G28KT 6000 RADZ SCT007 BKN010
BECMG 2818/2821 SCT004 BKN007
TEMPO 2819/2904 3500 DZ
BECMG 2821/2824 21016G26KT 8000 NSW
BECMG 2903/2906 BKN025
BECMG 2909/2912 18018G28KT



MET'MAP, la Météo Aéronautique d'un coup d'oeil ! - Copyright ORBIFLY Décembre 2007 - Disclaimer

ORBIFLY MET'MAP TEAM :

Programmation & Développement : Alexandra Zaïnal
Sur une idée originale de : Baudouin d'Aumeries
Assistance à la programmation : Marc-Olivier Méhu
Soutien technique & logistique : Manuel Goepfert

Contact : metmap@orbifly.com




SOURCES & CREDITS :

   NOAA